ENAT/ALF METAR and TAF weather

Enter ICAO airport designator
Station Type Date Time Source
ENAT METAR 2020/04/06 08:50 UTC NOAA

ENAT 060850Z 14008KT CAVOK M03/M10 Q1022 RMK WIND 700FT 16011KT


Station Type Date Time Source
ENAT Decoded METAR 2020/04/06 08:50 UTC NOAA

Alta Lufthavn, Norway (ENAT) 69-59N 023-22E 3M
Apr 06, 2020 - 04:50 AM EDT / 2020.04.06 0850 UTC
Wind: from the SE (140 degrees) at 9 MPH (8 KT):0
Visibility: greater than 7 mile(s):0
Temperature: 26 F (-3 C)
Windchill: 17 F (-8 C):1
Dew Point: 14 F (-10 C)
Relative Humidity: 58%
Pressure (altimeter): 30.18 in. Hg (1022 hPa)
ob: ENAT 060850Z 14008KT CAVOK M03/M10 Q1022 RMK WIND 700FT 16011KT
cycle: 9

Station Type Date Time Source
ENAT TAF 2008/11/30 23:00 UTC NOAA

TAF TAF ENAT 302300Z 3023/0102 22005KT 7000 -SN FEW008 BKN020
TEMPO 3023/0102 3000 -SN VV012

Example: see airport list